メインページ
METAR-TAF:

METAR-TAF

空港 :

エドモントンNamao, アルバータ州, カナダ

緯度: 53-40N, 経度: 113-28W, 海抜: 688m

現時点の気象観測

当レポートは21分前の05:00(UTC)に作成
西の風 9kt、最大17ktの突風を伴う
気温 8°C
湿度 93%
気圧 1006 hPa
視程: 14.5km
高度600ftの曇り

METAR: CYED 200500Z AUTO 28009G17KT 9SM OVC006 08/07 A2971 RMK SLP077

時間: 23:21 (05:21 UTC)

予報

当レポートは5時間51分前の23:30(UTC)に作成
予報は20日の 00時(UTC)から 20日の 12時(UTC)まで有効
西/北西の風 15kt、最大25ktの突風を伴う
視程: 9.7km
高度800ftの雲はほとんどない
高度2000ftの雲は散在している
高度3000ftの曇り
弱いにわか雨, 靄
20日の 00時(UTC)から 20日の 03時(UTC)まで一時的に
北/北西の風 15kt、最大30ktの突風を伴う
視程: 4.8km
高度800ftの千切れ雲あり
高度2000ftの曇り
にわか雨, 靄
20日の 0300時(UTC)から
西/北西の風 12kt、最大22ktの突風を伴う
視程: 4.8km
高度800ftの曇り
弱いにわか雨, 靄
20日の 03時(UTC)から 20日の 06時(UTC)まで一時的に
視程: 9.7km
高度800ftの雲は散在している
高度2500ftの曇り
弱いにわか雨, 靄
20日の 06時(UTC)から 20日の 08時(UTC)まで徐々に
北西の風 8kt

TAF: CYED 192330Z 2000/2012 30015G25KT 6SM -SHRA BR FEW008 SCT020 OVC030 TEMPO 2000/2003 33015G30KT 3SM SHRA BR BKN008 OVC020 FM200300 30012G22KT 3SM -SHRA BR OVC008 TEMPO 2003/2006 6SM -SHRA BR SCT008 OVC025 BECMG 2006/2008 32008KT RMK FCST BASED ON AUTO OBS. NXT FCST BY 200600Z

4,000以上の空港の気象観測と天気予報(METAR報とTAF報)

利用可能な観測所は地図上に黄色い丸と赤い丸で示す。

丸の上にカーソルを重ねると観測所名を参照できる。

次にクリックすると気象観測と天気予報を参照できる。

マップの切り替え:黒色「×」印の緑ボタンをクリックして拡大、「-」印の緑ボタンをクリックして縮小、緑色の三角印をクリックして隣りの地図に切り替え


METAR-TAF: